createdAt,value
2022-09-18T00:01:46.073Z,1.20
2022-09-18T00:04:15.641Z,1.12
2022-09-18T00:06:45.529Z,1.09
2022-09-18T00:09:16.471Z,1.06
2022-09-18T00:11:48.308Z,1.10
2022-09-18T00:14:20.042Z,1.13
2022-09-18T00:16:48.131Z,1.13
2022-09-18T00:19:16.678Z,1.11
2022-09-18T00:21:48.238Z,1.14
2022-09-18T00:24:20.121Z,1.10
2022-09-18T00:26:49.080Z,1.26
2022-09-18T00:29:20.689Z,1.44
2022-09-18T00:31:48.675Z,1.46
2022-09-18T00:34:17.134Z,1.64
2022-09-18T00:36:46.445Z,1.76
2022-09-18T00:39:15.220Z,1.85
2022-09-18T00:41:44.840Z,1.95
2022-09-18T00:44:43.806Z,2.08
2022-09-18T00:47:11.733Z,2.21
2022-09-18T00:50:04.855Z,2.34
2022-09-18T00:53:02.722Z,2.48
2022-09-18T00:55:35.223Z,2.61
2022-09-18T00:58:03.880Z,2.75
2022-09-18T01:00:33.174Z,2.86
2022-09-18T01:03:02.367Z,2.97
2022-09-18T01:05:49.637Z,3.14
2022-09-18T01:08:44.329Z,3.29
2022-09-18T01:11:37.161Z,3.40
2022-09-18T01:14:33.798Z,3.55
2022-09-18T01:17:22.687Z,3.72
2022-09-18T01:20:23.956Z,3.87
2022-09-18T01:23:24.365Z,4.02
2022-09-18T01:26:29.750Z,4.20
2022-09-18T01:29:10.833Z,4.38
2022-09-18T01:31:58.261Z,4.50
2022-09-18T01:34:52.109Z,4.70
2022-09-18T01:37:27.113Z,4.88
2022-09-18T01:40:03.514Z,5.03
2022-09-18T01:42:34.006Z,5.07
2022-09-18T01:45:07.578Z,5.32
2022-09-18T01:48:01.005Z,5.45
2022-09-18T01:50:32.440Z,5.60
2022-09-18T01:53:04.339Z,5.73
2022-09-18T01:55:36.641Z,5.86
2022-09-18T01:58:09.853Z,6.03
2022-09-18T02:00:44.022Z,6.17
2022-09-18T02:03:58.102Z,6.18
2022-09-18T02:06:59.226Z,6.49
2022-09-18T02:09:28.273Z,6.52
2022-09-18T02:11:59.708Z,6.82
2022-09-18T02:14:36.524Z,6.93
2022-09-18T02:17:09.504Z,7.12
2022-09-18T02:19:47.033Z,7.24
2022-09-18T02:22:18.585Z,7.47
2022-09-18T02:24:51.332Z,7.62
2022-09-18T02:27:22.231Z,7.84
2022-09-18T02:29:51.935Z,7.96
2022-09-18T02:32:22.811Z,8.04
2022-09-18T02:34:51.055Z,8.21
2022-09-18T02:37:58.776Z,8.44
2022-09-18T02:40:47.279Z,8.67
2022-09-18T02:43:43.982Z,8.85
2022-09-18T02:46:36.780Z,9.05
2022-09-18T02:49:26.407Z,9.27
2022-09-18T02:52:24.940Z,9.47
2022-09-18T02:55:13.748Z,9.60
2022-09-18T02:57:49.880Z,9.70
2022-09-18T03:00:20.569Z,9.93
2022-09-18T03:02:51.037Z,10.10
2022-09-18T03:05:19.745Z,10.28
2022-09-18T03:07:48.184Z,10.46
2022-09-18T03:10:16.156Z,10.64
2022-09-18T03:12:44.114Z,10.82
2022-09-18T03:15:13.294Z,11.02
2022-09-18T03:17:41.318Z,11.20
2022-09-18T03:20:09.627Z,11.44
2022-09-18T03:22:37.722Z,11.68
2022-09-18T03:25:06.125Z,11.94
2022-09-18T03:27:34.034Z,12.17
2022-09-18T03:30:02.793Z,12.38
2022-09-18T03:32:30.960Z,12.59
2022-09-18T03:34:58.873Z,12.83
2022-09-18T03:37:26.970Z,13.05
2022-09-18T03:39:54.967Z,13.40
2022-09-18T03:42:22.981Z,13.64
2022-09-18T03:44:54.080Z,13.80
2022-09-18T03:47:21.975Z,14.04
2022-09-18T03:49:49.935Z,14.19
2022-09-18T03:52:18.052Z,14.37
2022-09-18T03:54:46.152Z,14.53
2022-09-18T03:57:14.160Z,14.70
2022-09-18T03:59:42.335Z,14.75
2022-09-18T04:02:11.087Z,14.94
2022-09-18T04:04:39.012Z,15.07
2022-09-18T04:07:08.957Z,15.19
2022-09-18T04:09:39.356Z,15.32
2022-09-18T04:12:07.487Z,15.46
2022-09-18T04:14:37.106Z,15.65
2022-09-18T04:17:05.082Z,15.75
2022-09-18T04:19:33.057Z,15.80
2022-09-18T04:22:01.086Z,15.98
2022-09-18T04:24:29.260Z,16.04
2022-09-18T04:26:57.080Z,16.25
2022-09-18T04:29:25.144Z,16.32
2022-09-18T04:31:53.072Z,16.33
2022-09-18T04:34:21.139Z,16.26
2022-09-18T04:36:50.254Z,16.19
2022-09-18T04:39:18.290Z,16.40
2022-09-18T04:41:46.625Z,16.22
2022-09-18T04:44:15.703Z,16.27
2022-09-18T04:46:43.786Z,15.96
2022-09-18T04:49:12.043Z,15.98
2022-09-18T04:51:40.160Z,16.25
2022-09-18T04:54:08.161Z,16.53
2022-09-18T04:56:36.188Z,16.71
2022-09-18T04:59:04.642Z,16.85
2022-09-18T05:01:32.807Z,16.95
2022-09-18T05:04:00.792Z,17.01
2022-09-18T05:06:30.747Z,17.06
2022-09-18T05:08:58.552Z,17.08
2022-09-18T05:11:27.963Z,17.07
2022-09-18T05:13:57.522Z,17.09
2022-09-18T05:16:25.773Z,16.88
2022-09-18T05:18:53.758Z,16.97
2022-09-18T05:21:23.536Z,16.96
2022-09-18T05:23:51.597Z,16.86
2022-09-18T05:26:38.751Z,16.77
2022-09-18T05:29:06.751Z,16.68
2022-09-18T05:31:34.784Z,16.69
2022-09-18T05:34:05.065Z,16.78
2022-09-18T05:36:33.073Z,16.75
2022-09-18T05:39:01.198Z,16.68
2022-09-18T05:41:30.300Z,16.69
2022-09-18T05:43:58.240Z,16.65
2022-09-18T05:46:26.220Z,16.60
2022-09-18T05:48:54.769Z,16.62
2022-09-18T05:51:22.750Z,16.54
2022-09-18T05:53:50.669Z,16.59
2022-09-18T05:56:18.794Z,16.56
2022-09-18T05:58:46.772Z,16.51
2022-09-18T06:01:15.203Z,16.32
2022-09-18T06:03:43.252Z,16.20
2022-09-18T06:06:11.491Z,16.13
2022-09-18T06:08:39.448Z,16.11
2022-09-18T06:11:08.991Z,16.15
2022-09-18T06:13:37.133Z,16.20
2022-09-18T06:16:05.228Z,16.31
2022-09-18T06:18:33.289Z,16.35
2022-09-18T06:21:01.228Z,16.34
2022-09-18T06:23:30.312Z,16.32
2022-09-18T06:26:10.394Z,16.32
2022-09-18T06:28:42.259Z,16.25
2022-09-18T06:31:11.275Z,16.29
2022-09-18T06:33:39.375Z,16.36
2022-09-18T06:36:14.437Z,16.32
2022-09-18T06:38:42.426Z,16.20
2022-09-18T06:41:10.537Z,16.10
2022-09-18T06:43:38.462Z,16.05
2022-09-18T06:46:08.665Z,16.16
2022-09-18T06:48:38.402Z,16.32
2022-09-18T06:51:06.698Z,16.53
2022-09-18T06:53:34.667Z,16.50
2022-09-18T06:56:04.365Z,16.61
2022-09-18T06:58:32.551Z,16.69
2022-09-18T07:01:01.649Z,16.70
2022-09-18T07:03:30.928Z,16.63
2022-09-18T07:05:58.946Z,16.62
2022-09-18T07:08:26.844Z,16.60
2022-09-18T07:10:57.093Z,16.63
2022-09-18T07:13:25.142Z,16.54
2022-09-18T07:15:54.341Z,16.63
2022-09-18T07:18:22.571Z,16.68
2022-09-18T07:20:50.721Z,16.90
2022-09-18T07:23:18.677Z,17.27
2022-09-18T07:28:32.488Z,16.96
2022-09-18T07:31:07.947Z,17.04
2022-09-18T07:33:36.103Z,16.99
2022-09-18T07:36:07.125Z,16.95
2022-09-18T07:38:55.009Z,16.82
2022-09-18T07:41:22.933Z,16.63
2022-09-18T07:43:51.962Z,16.61
2022-09-18T07:46:20.336Z,16.58
2022-09-18T07:48:48.561Z,16.59
2022-09-18T07:51:16.869Z,16.60
2022-09-18T07:53:47.578Z,16.55
2022-09-18T07:56:15.570Z,16.69
2022-09-18T07:58:43.537Z,16.84
2022-09-18T08:01:11.904Z,16.88
2022-09-18T08:03:41.581Z,16.87
2022-09-18T08:06:09.538Z,16.91
2022-09-18T08:08:38.498Z,16.81
2022-09-18T08:11:06.511Z,16.74
2022-09-18T08:13:34.853Z,16.77
2022-09-18T08:16:04.756Z,16.66
2022-09-18T08:18:32.804Z,16.61
2022-09-18T08:21:00.758Z,16.75
2022-09-18T08:23:29.970Z,16.82
2022-09-18T08:26:04.764Z,16.59
2022-09-18T08:28:32.975Z,16.58
2022-09-18T08:31:02.643Z,16.55
2022-09-18T08:33:31.530Z,16.40
2022-09-18T08:35:59.588Z,16.38
2022-09-18T08:38:29.704Z,16.33
2022-09-18T08:41:23.170Z,16.28
2022-09-18T08:44:13.980Z,16.23
2022-09-18T08:46:50.078Z,16.18
2022-09-18T08:49:53.262Z,16.13
2022-09-18T08:52:29.124Z,16.08
2022-09-18T08:55:22.924Z,16.08
2022-09-18T08:57:59.989Z,15.99
2022-09-18T09:00:58.934Z,16.09
2022-09-18T09:04:03.705Z,16.07
2022-09-18T09:06:47.798Z,16.05
2022-09-18T09:09:32.545Z,16.00
2022-09-18T09:12:25.738Z,15.97
2022-09-18T09:14:57.660Z,15.95
2022-09-18T09:17:39.463Z,15.93
2022-09-18T09:20:07.417Z,15.93
2022-09-18T09:22:59.375Z,15.84
2022-09-18T09:25:51.342Z,15.80
2022-09-18T09:28:29.956Z,15.74
2022-09-18T09:31:03.730Z,15.89
2022-09-18T09:33:42.639Z,16.00
2022-09-18T09:36:16.960Z,16.11
2022-09-18T09:39:02.568Z,16.16
2022-09-18T09:41:54.773Z,16.27
2022-09-18T09:44:31.816Z,16.59
2022-09-18T09:47:05.545Z,17.09
2022-09-18T09:50:19.016Z,17.74
2022-09-18T09:52:48.142Z,17.61
2022-09-18T09:55:20.015Z,17.75
2022-09-18T09:57:58.430Z,17.69
2022-09-18T10:00:26.386Z,17.35
2022-09-18T10:03:06.275Z,17.07
2022-09-18T10:05:43.770Z,16.75
2022-09-18T10:08:16.286Z,16.51
2022-09-18T10:10:54.731Z,16.38
2022-09-18T10:13:27.088Z,16.27
2022-09-18T10:16:14.048Z,16.15
2022-09-18T10:18:49.081Z,16.02
2022-09-18T10:21:24.207Z,15.84
2022-09-18T10:24:17.272Z,15.85
2022-09-18T10:26:56.710Z,15.80
2022-09-18T10:29:24.861Z,15.74
2022-09-18T10:31:59.445Z,15.63
2022-09-18T10:34:49.319Z,15.64
2022-09-18T10:37:32.045Z,15.43
2022-09-18T10:40:02.060Z,15.54
2022-09-18T10:42:33.611Z,15.47
2022-09-18T10:45:24.427Z,15.44
2022-09-18T10:48:24.522Z,15.41
2022-09-18T10:50:58.201Z,15.38
2022-09-18T10:53:31.570Z,15.32
2022-09-18T10:56:07.113Z,15.15
2022-09-18T10:58:35.407Z,15.13
2022-09-18T11:01:11.168Z,14.92
2022-09-18T11:03:43.172Z,14.91
2022-09-18T11:06:20.504Z,14.79
2022-09-18T11:08:51.589Z,14.73
2022-09-18T11:11:31.394Z,14.65
2022-09-18T11:14:07.480Z,14.64
2022-09-18T11:16:49.858Z,14.57
2022-09-18T11:19:26.155Z,14.49
2022-09-18T11:22:00.521Z,14.35
2022-09-18T11:24:34.264Z,14.33
2022-09-18T11:27:04.678Z,14.25
2022-09-18T11:29:35.607Z,14.15
2022-09-18T11:32:25.931Z,14.06
2022-09-18T11:34:58.672Z,13.98
2022-09-18T11:37:31.828Z,13.90
2022-09-18T11:40:18.093Z,13.83
2022-09-18T11:42:48.779Z,13.78
2022-09-18T11:45:47.378Z,13.71
2022-09-18T11:48:33.483Z,13.63
2022-09-18T11:51:06.580Z,13.55
2022-09-18T11:53:49.836Z,13.48
2022-09-18T11:56:30.892Z,13.14
2022-09-18T11:59:10.012Z,13.36
2022-09-18T12:01:44.777Z,13.26
2022-09-18T12:04:35.413Z,13.23
2022-09-18T12:07:37.562Z,13.15
2022-09-18T12:10:27.147Z,13.10
2022-09-18T12:13:25.375Z,12.97
2022-09-18T12:16:26.942Z,12.88
2022-09-18T12:19:08.120Z,12.82
2022-09-18T12:22:03.772Z,12.75
2022-09-18T12:24:31.996Z,12.61
2022-09-18T12:27:06.748Z,12.56
2022-09-18T12:29:55.241Z,12.46
2022-09-18T12:32:57.561Z,12.43
2022-09-18T12:35:46.567Z,12.33
2022-09-18T12:38:52.166Z,12.23
2022-09-18T12:41:36.776Z,12.15
2022-09-18T12:44:30.595Z,12.04
2022-09-18T12:47:16.157Z,12.00
2022-09-18T12:50:07.368Z,11.86
2022-09-18T12:53:26.007Z,11.76
2022-09-18T12:56:20.124Z,11.60
2022-09-18T12:59:15.238Z,11.46
2022-09-18T13:02:03.916Z,11.32
2022-09-18T13:04:40.031Z,11.21
2022-09-18T13:07:16.423Z,11.16
2022-09-18T13:09:55.354Z,11.07
2022-09-18T13:13:00.792Z,10.94
2022-09-18T13:15:52.433Z,10.82
2022-09-18T13:18:47.699Z,10.46
2022-09-18T13:21:26.944Z,10.29
2022-09-18T13:23:56.505Z,10.27
2022-09-18T13:26:27.133Z,10.30
2022-09-18T13:28:57.880Z,10.25
2022-09-18T13:31:37.440Z,10.17
2022-09-18T13:34:15.577Z,10.09
2022-09-18T13:36:47.988Z,9.73
2022-09-18T13:39:22.452Z,9.89
2022-09-18T13:41:53.956Z,9.73
2022-09-18T13:44:27.969Z,9.76
2022-09-18T13:47:16.866Z,9.65
2022-09-18T13:49:59.423Z,9.60
2022-09-18T13:52:37.480Z,9.56
2022-09-18T13:55:14.429Z,9.45
2022-09-18T13:57:43.077Z,9.27
2022-09-18T14:00:20.153Z,9.20
2022-09-18T14:02:50.601Z,9.09
2022-09-18T14:05:41.030Z,8.99
2022-09-18T14:08:38.358Z,8.87
2022-09-18T14:11:15.307Z,8.81
2022-09-18T14:13:52.810Z,8.40
2022-09-18T14:16:20.833Z,8.66
2022-09-18T14:18:48.700Z,8.52
2022-09-18T14:21:20.380Z,8.46
2022-09-18T14:23:48.422Z,8.40
2022-09-18T14:26:32.898Z,8.33
2022-09-18T14:29:02.113Z,8.26
2022-09-18T14:31:38.035Z,7.90
2022-09-18T14:34:30.974Z,8.03
2022-09-18T14:37:02.358Z,7.97
2022-09-18T14:39:33.464Z,7.91
2022-09-18T14:42:33.604Z,7.82
2022-09-18T14:45:15.713Z,7.83
2022-09-18T14:47:49.733Z,7.74
2022-09-18T14:50:34.529Z,7.60
2022-09-18T14:53:21.776Z,7.58
2022-09-18T14:55:57.537Z,7.52
2022-09-18T14:58:31.850Z,7.46
2022-09-18T15:01:00.215Z,7.37
2022-09-18T15:03:37.196Z,7.24
2022-09-18T15:06:39.349Z,7.22
2022-09-18T15:09:11.668Z,7.15
2022-09-18T15:12:01.782Z,7.08
2022-09-18T15:14:45.393Z,7.06
2022-09-18T15:17:19.727Z,6.99
2022-09-18T15:20:03.654Z,6.91
2022-09-18T15:22:32.609Z,6.85
2022-09-18T15:25:02.422Z,6.83
2022-09-18T15:27:35.720Z,6.78
2022-09-18T15:30:09.003Z,6.69
2022-09-18T15:32:45.138Z,6.62
2022-09-18T15:35:28.914Z,6.49
2022-09-18T15:38:03.339Z,6.51
2022-09-18T15:40:37.843Z,6.38
2022-09-18T15:43:28.037Z,6.32
2022-09-18T15:46:08.368Z,6.27
2022-09-18T15:48:46.769Z,6.20
2022-09-18T15:51:23.857Z,6.24
2022-09-18T15:54:12.933Z,6.17
2022-09-18T15:56:51.268Z,6.08
2022-09-18T15:59:39.325Z,5.97
2022-09-18T16:02:32.575Z,5.92
2022-09-18T16:05:10.469Z,5.88
2022-09-18T16:07:40.514Z,5.85
2022-09-18T16:10:36.244Z,5.80
2022-09-18T16:13:07.429Z,5.76
2022-09-18T16:15:36.349Z,5.69
2022-09-18T16:18:19.986Z,5.65
2022-09-18T16:20:59.876Z,5.59
2022-09-18T16:23:34.962Z,5.53
2022-09-18T16:26:06.739Z,5.48
2022-09-18T16:28:41.154Z,5.43
2022-09-18T16:31:09.309Z,5.40
2022-09-18T16:34:13.008Z,5.29
2022-09-18T16:36:43.562Z,5.29
2022-09-18T16:39:20.636Z,5.25
2022-09-18T16:41:49.438Z,5.13
2022-09-18T16:44:19.550Z,5.16
2022-09-18T16:46:52.327Z,5.13
2022-09-18T16:49:26.107Z,5.08
2022-09-18T16:51:56.222Z,5.05
2022-09-18T16:54:27.460Z,5.05
2022-09-18T16:57:06.542Z,5.04
2022-09-18T16:59:38.267Z,5.03
2022-09-18T17:02:06.490Z,5.01
2022-09-18T17:04:35.494Z,4.94
2022-09-18T17:07:04.975Z,4.89
2022-09-18T17:09:33.461Z,4.83
2022-09-18T17:12:01.458Z,4.81
2022-09-18T17:14:30.985Z,4.74
2022-09-18T17:16:58.958Z,4.68
2022-09-18T17:19:26.960Z,4.63
2022-09-18T17:21:57.772Z,4.57
2022-09-18T17:24:28.174Z,4.35
2022-09-18T17:26:56.213Z,4.50
2022-09-18T17:29:24.506Z,4.49
2022-09-18T17:32:01.508Z,4.43
2022-09-18T17:34:29.808Z,4.39
2022-09-18T17:36:57.817Z,4.34
2022-09-18T17:39:25.759Z,4.26
2022-09-18T17:41:55.988Z,4.27
2022-09-18T17:44:25.089Z,4.22
2022-09-18T17:46:54.194Z,4.15
2022-09-18T17:49:23.553Z,4.12
2022-09-18T17:51:51.527Z,4.09
2022-09-18T17:54:19.662Z,4.06
2022-09-18T17:56:48.531Z,4.03
2022-09-18T17:59:16.521Z,4.00
2022-09-18T18:01:47.284Z,3.99
2022-09-18T18:04:16.067Z,3.95
2022-09-18T18:06:44.090Z,3.90
2022-09-18T18:09:12.006Z,3.87
2022-09-18T18:11:40.432Z,3.65
2022-09-18T18:14:08.536Z,3.68
2022-09-18T18:16:38.758Z,3.66
2022-09-18T18:19:13.394Z,3.50
2022-09-18T18:21:43.135Z,3.65
2022-09-18T18:24:15.700Z,3.61
2022-09-18T18:26:45.407Z,3.58
2022-09-18T18:29:16.121Z,3.54
2022-09-18T18:31:48.534Z,3.50
2022-09-18T18:34:22.883Z,3.47
2022-09-18T18:36:51.275Z,3.44
2022-09-18T18:39:20.633Z,3.34
2022-09-18T18:41:50.977Z,3.38
2022-09-18T18:44:19.029Z,3.36
2022-09-18T18:46:47.144Z,3.35
2022-09-18T18:49:35.944Z,3.32
2022-09-18T18:52:05.781Z,3.24
2022-09-18T18:54:33.426Z,3.28
2022-09-18T18:57:03.078Z,3.21
2022-09-18T18:59:32.827Z,3.06
2022-09-18T19:02:02.874Z,3.10
2022-09-18T19:04:31.801Z,3.03
2022-09-18T19:06:59.706Z,3.02
2022-09-18T19:09:31.241Z,2.90
2022-09-18T19:11:59.744Z,2.91
2022-09-18T19:14:33.935Z,2.89
2022-09-18T19:17:02.038Z,2.85
2022-09-18T19:19:32.072Z,2.84
2022-09-18T19:22:00.311Z,2.81
2022-09-18T19:24:29.159Z,2.81
2022-09-18T19:26:58.664Z,2.79
2022-09-18T19:29:26.616Z,2.76
2022-09-18T19:31:54.576Z,2.75
2022-09-18T19:34:26.228Z,2.73
2022-09-18T19:36:54.245Z,2.68
2022-09-18T19:39:24.906Z,2.64
2022-09-18T19:42:05.014Z,2.61
2022-09-18T19:44:45.472Z,2.57
2022-09-18T19:47:50.470Z,2.55
2022-09-18T19:50:24.806Z,2.45
2022-09-18T19:52:52.846Z,2.40
2022-09-18T19:55:24.069Z,2.54
2022-09-18T19:57:55.500Z,2.53
2022-09-18T20:00:24.711Z,2.50
2022-09-18T20:02:54.685Z,2.40
2022-09-18T20:05:22.665Z,2.43
2022-09-18T20:07:50.890Z,2.38
2022-09-18T20:10:20.108Z,2.29
2022-09-18T20:12:48.314Z,2.35
2022-09-18T20:15:16.213Z,2.33
2022-09-18T20:17:44.301Z,2.27
2022-09-18T20:20:16.311Z,2.20
2022-09-18T20:22:44.592Z,2.26
2022-09-18T20:25:13.758Z,2.24
2022-09-18T20:27:42.759Z,2.21
2022-09-18T20:30:30.428Z,2.18
2022-09-18T20:32:58.324Z,2.17
2022-09-18T20:35:27.534Z,2.12
2022-09-18T20:37:58.086Z,2.11
2022-09-18T20:40:28.759Z,2.00
2022-09-18T20:42:56.677Z,2.04
2022-09-18T20:45:27.277Z,2.03
2022-09-18T20:47:55.179Z,2.01
2022-09-18T20:50:26.290Z,1.79
2022-09-18T20:52:56.782Z,1.97
2022-09-18T20:55:25.447Z,1.89
2022-09-18T20:57:53.310Z,1.93
2022-09-18T21:00:22.945Z,1.91
2022-09-18T21:02:51.857Z,1.92
2022-09-18T21:05:19.991Z,1.93
2022-09-18T21:07:48.965Z,1.90
2022-09-18T21:10:16.974Z,1.66
2022-09-18T21:12:45.501Z,1.88
2022-09-18T21:15:15.322Z,1.84
2022-09-18T21:17:43.564Z,1.85
2022-09-18T21:20:11.705Z,1.88
2022-09-18T21:23:00.376Z,1.83
2022-09-18T21:25:31.212Z,1.90
2022-09-18T21:27:59.222Z,1.91
2022-09-18T21:30:28.529Z,1.62
2022-09-18T21:32:56.413Z,1.88
2022-09-18T21:35:24.356Z,1.87
2022-09-18T21:37:55.818Z,1.84
2022-09-18T21:40:24.712Z,1.82
2022-09-18T21:42:53.444Z,1.82
2022-09-18T21:45:21.733Z,1.84
2022-09-18T21:47:51.346Z,1.83
2022-09-18T21:50:19.744Z,1.82
2022-09-18T21:52:48.504Z,1.80
2022-09-18T21:55:16.535Z,1.75
2022-09-18T21:57:44.457Z,1.77
2022-09-18T22:00:12.936Z,1.73
2022-09-18T22:02:41.627Z,1.63
2022-09-18T22:05:12.329Z,1.63
2022-09-18T22:07:42.433Z,1.67
2022-09-18T22:10:10.537Z,1.66
2022-09-18T22:12:47.487Z,1.63
2022-09-18T22:15:16.544Z,1.65
2022-09-18T22:17:44.580Z,1.65
2022-09-18T22:20:12.508Z,1.65
2022-09-18T22:22:42.077Z,1.64
2022-09-18T22:25:10.302Z,1.64
2022-09-18T22:27:38.327Z,1.63
2022-09-18T22:30:06.944Z,1.50
2022-09-18T22:32:34.890Z,1.58
2022-09-18T22:35:03.491Z,1.57
2022-09-18T22:37:33.222Z,1.54
2022-09-18T22:40:01.338Z,1.53
2022-09-18T22:42:31.754Z,1.51
2022-09-18T22:44:59.816Z,1.50
2022-09-18T22:47:27.863Z,1.47
2022-09-18T22:49:55.961Z,1.44
2022-09-18T22:52:24.033Z,1.45
2022-09-18T22:54:51.932Z,1.44
2022-09-18T22:57:19.802Z,1.46
2022-09-18T22:59:47.909Z,1.46
2022-09-18T23:02:15.936Z,1.47
2022-09-18T23:04:43.936Z,1.39
2022-09-18T23:07:12.145Z,1.40
2022-09-18T23:09:42.099Z,1.45
2022-09-18T23:12:10.164Z,1.44
2022-09-18T23:14:38.217Z,1.43
2022-09-18T23:17:06.373Z,1.42
2022-09-18T23:19:35.736Z,1.41
2022-09-18T23:22:04.188Z,1.39
2022-09-18T23:24:32.365Z,1.26
2022-09-18T23:27:00.381Z,1.15
2022-09-18T23:29:33.441Z,1.39
2022-09-18T23:32:01.445Z,1.37
2022-09-18T23:34:33.953Z,1.37
2022-09-18T23:37:02.533Z,1.30
2022-09-18T23:39:35.319Z,1.32
2022-09-18T23:42:06.419Z,1.35
2022-09-18T23:44:36.195Z,1.31
2022-09-18T23:47:04.298Z,1.28
2022-09-18T23:49:32.685Z,1.24
2022-09-18T23:52:01.452Z,0.94
2022-09-18T23:54:31.769Z,1.24
2022-09-18T23:56:59.819Z,1.24
2022-09-18T23:59:29.184Z,1.24
